PGT6FM LTFD-LTFJ
Flight info
| Callsign | PGT6FM |
|---|---|
| Flight time | 0h 46m |
| Altitude | 28000 |
| Route | ECZIM1U/05 ECZIM Y371 VUTZO |
| Aircraft | A20N/M-SDE2E3FGHIRWXY/LB1 |
Departure
| Time | 2026-04-24 09:08 |
|---|---|
| Airport | Balıkesir Koca Seyit Airport (LTFD) |
Arrival
| Time | 2026-04-24 09:54 |
|---|---|
| Airport | Istanbul Sabiha Gökçen International Airport (LTFJ) |
| Time | Latitude | Longitude | Altitude | Speed | Heading |
|---|---|---|---|---|---|
| 2026-04-24 08:43 | 39.54922 | 27.01138 | 47 ft | 0 kts | 142° |
| 2026-04-24 08:59 | 39.54923 | 27.01138 | 47 ft | 1 kts | 142° |
| 2026-04-24 09:00 | 39.54930 | 27.01130 | 47 ft | 2 kts | 142° |
| 2026-04-24 09:00 | 39.54941 | 27.01116 | 47 ft | 2 kts | 119° |
| 2026-04-24 09:00 | 39.54946 | 27.01098 | 46 ft | 2 kts | 102° |
| 2026-04-24 09:00 | 39.54948 | 27.01078 | 46 ft | 2 kts | 83° |
| 2026-04-24 09:01 | 39.54944 | 27.01060 | 46 ft | 2 kts | 64° |
| 2026-04-24 09:01 | 39.54940 | 27.01050 | 46 ft | 1 kts | 54° |
| 2026-04-24 09:01 | 39.54936 | 27.01044 | 46 ft | 0 kts | 53° |
| 2026-04-24 09:04 | 39.54938 | 27.01047 | 46 ft | 1 kts | 53° |
| 2026-04-24 09:04 | 39.54947 | 27.01063 | 46 ft | 6 kts | 53° |
| 2026-04-24 09:04 | 39.55008 | 27.01092 | 46 ft | 14 kts | 335° |
| 2026-04-24 09:04 | 39.55098 | 27.01003 | 44 ft | 17 kts | 324° |
| 2026-04-24 09:05 | 39.55154 | 27.00877 | 42 ft | 18 kts | 249° |
| 2026-04-24 09:05 | 39.55082 | 27.00738 | 42 ft | 18 kts | 233° |
| 2026-04-24 09:05 | 39.55002 | 27.00603 | 41 ft | 19 kts | 234° |
| 2026-04-24 09:05 | 39.54915 | 27.00453 | 41 ft | 22 kts | 232° |
| 2026-04-24 09:06 | 39.54816 | 27.00285 | 41 ft | 24 kts | 231° |
| 2026-04-24 09:06 | 39.54716 | 27.00111 | 41 ft | 26 kts | 233° |
| 2026-04-24 09:06 | 39.54606 | 26.99911 | 39 ft | 28 kts | 232° |
| 2026-04-24 09:06 | 39.54470 | 26.99731 | 39 ft | 28 kts | 198° |
| 2026-04-24 09:07 | 39.54464 | 26.99656 | 37 ft | 11 kts | 36° |
| 2026-04-24 09:07 | 39.54520 | 26.99743 | 39 ft | 13 kts | 53° |
| 2026-04-24 09:07 | 39.54568 | 26.99828 | 39 ft | 8 kts | 54° |
| 2026-04-24 09:08 | 39.54750 | 27.00151 | 41 ft | 87 kts | 54° |
| 2026-04-24 09:08 | 39.55269 | 27.01052 | 73 ft | 155 kts | 51° |
| 2026-04-24 09:08 | 39.55970 | 27.02168 | 697 ft | 167 kts | 47° |
| 2026-04-24 09:08 | 39.56709 | 27.03340 | 1549 ft | 173 kts | 52° |
| 2026-04-24 09:09 | 39.57404 | 27.04617 | 2352 ft | 181 kts | 53° |
| 2026-04-24 09:09 | 39.58157 | 27.06017 | 2969 ft | 198 kts | 53° |
| 2026-04-24 09:09 | 39.58985 | 27.07539 | 3603 ft | 216 kts | 53° |
| 2026-04-24 09:09 | 39.59884 | 27.09170 | 4294 ft | 231 kts | 53° |
| 2026-04-24 09:10 | 39.60820 | 27.10857 | 5213 ft | 236 kts | 53° |
| 2026-04-24 09:10 | 39.61776 | 27.12569 | 6190 ft | 239 kts | 54° |
| 2026-04-24 09:10 | 39.62751 | 27.14310 | 7157 ft | 241 kts | 53° |
| 2026-04-24 09:10 | 39.63731 | 27.16060 | 8056 ft | 246 kts | 53° |
| 2026-04-24 09:11 | 39.64747 | 27.17868 | 8926 ft | 251 kts | 53° |
| 2026-04-24 09:11 | 39.65776 | 27.19700 | 9787 ft | 256 kts | 53° |
| 2026-04-24 09:11 | 39.66830 | 27.21574 | 10640 ft | 261 kts | 53° |
| 2026-04-24 09:11 | 39.67893 | 27.23466 | 11407 ft | 268 kts | 53° |
| 2026-04-24 09:12 | 39.69035 | 27.25499 | 11928 ft | 286 kts | 53° |
| 2026-04-24 09:12 | 39.70229 | 27.27631 | 12404 ft | 304 kts | 53° |
| 2026-04-24 09:12 | 39.71565 | 27.29869 | 12835 ft | 322 kts | 46° |
| 2026-04-24 09:12 | 39.73360 | 27.31742 | 13216 ft | 340 kts | 30° |
| 2026-04-24 09:13 | 39.75571 | 27.32998 | 13574 ft | 357 kts | 19° |
| 2026-04-24 09:13 | 39.77974 | 27.33991 | 13889 ft | 375 kts | 17° |
| 2026-04-24 09:13 | 39.80534 | 27.35011 | 14238 ft | 390 kts | 17° |
| 2026-04-24 09:13 | 39.83142 | 27.36058 | 14845 ft | 395 kts | 18° |
| 2026-04-24 09:14 | 39.85795 | 27.37136 | 15584 ft | 397 kts | 18° |
| 2026-04-24 09:14 | 39.88423 | 27.38211 | 16280 ft | 400 kts | 18° |
| 2026-04-24 09:14 | 39.91092 | 27.39307 | 16960 ft | 402 kts | 18° |
| 2026-04-24 09:14 | 39.93738 | 27.40399 | 17561 ft | 406 kts | 18° |
| 2026-04-24 09:15 | 39.96466 | 27.41525 | 18001 ft | 413 kts | 18° |
| 2026-04-24 09:15 | 39.99231 | 27.42666 | 18537 ft | 417 kts | 18° |
| 2026-04-24 09:15 | 40.01891 | 27.43763 | 19096 ft | 420 kts | 18° |
| 2026-04-24 09:15 | 40.04719 | 27.44929 | 19623 ft | 424 kts | 18° |
| 2026-04-24 09:16 | 40.07537 | 27.46092 | 20128 ft | 428 kts | 18° |
| 2026-04-24 09:16 | 40.10377 | 27.47264 | 20640 ft | 431 kts | 18° |
| 2026-04-24 09:16 | 40.13253 | 27.48452 | 21189 ft | 433 kts | 18° |
| 2026-04-24 09:16 | 40.16115 | 27.49635 | 21889 ft | 432 kts | 18° |
| 2026-04-24 09:17 | 40.18193 | 27.50495 | 22398 ft | 431 kts | 18° |
| 2026-04-24 09:17 | 40.21019 | 27.51666 | 23061 ft | 430 kts | 18° |
| 2026-04-24 09:17 | 40.23836 | 27.52836 | 23718 ft | 429 kts | 18° |
| 2026-04-24 09:17 | 40.26714 | 27.54052 | 24389 ft | 428 kts | 19° |
| 2026-04-24 09:18 | 40.29424 | 27.55521 | 25058 ft | 426 kts | 25° |
| 2026-04-24 09:18 | 40.32027 | 27.57379 | 25708 ft | 425 kts | 31° |
| 2026-04-24 09:18 | 40.34455 | 27.59550 | 26341 ft | 424 kts | 35° |
| 2026-04-24 09:18 | 40.36818 | 27.61836 | 26844 ft | 425 kts | 36° |
| 2026-04-24 09:19 | 40.39201 | 27.64179 | 27008 ft | 427 kts | 36° |
| 2026-04-24 09:19 | 40.41580 | 27.66521 | 27011 ft | 427 kts | 36° |
| 2026-04-24 09:19 | 40.43946 | 27.68846 | 27012 ft | 427 kts | 36° |
| 2026-04-24 09:19 | 40.46352 | 27.71205 | 27012 ft | 427 kts | 36° |
| 2026-04-24 09:20 | 40.48737 | 27.73544 | 27014 ft | 427 kts | 36° |
| 2026-04-24 09:20 | 40.51111 | 27.75874 | 27011 ft | 427 kts | 36° |
| 2026-04-24 09:20 | 40.53465 | 27.78187 | 27012 ft | 427 kts | 36° |
| 2026-04-24 09:20 | 40.55866 | 27.80548 | 27016 ft | 427 kts | 36° |
| 2026-04-24 09:21 | 40.58221 | 27.82866 | 27016 ft | 427 kts | 36° |
| 2026-04-24 09:21 | 40.60616 | 27.85225 | 27016 ft | 427 kts | 36° |
| 2026-04-24 09:21 | 40.62984 | 27.87560 | 27018 ft | 427 kts | 36° |
| 2026-04-24 09:21 | 40.65339 | 27.89890 | 27020 ft | 427 kts | 37° |
| 2026-04-24 09:22 | 40.67473 | 27.92662 | 27012 ft | 430 kts | 52° |
| 2026-04-24 09:22 | 40.68922 | 27.96071 | 27021 ft | 434 kts | 67° |
| 2026-04-24 09:22 | 40.69642 | 27.99929 | 27023 ft | 437 kts | 81° |
| 2026-04-24 09:22 | 40.69980 | 28.03921 | 27023 ft | 437 kts | 82° |
| 2026-04-24 09:23 | 40.70290 | 28.07889 | 27022 ft | 437 kts | 82° |
| 2026-04-24 09:23 | 40.70603 | 28.11856 | 27021 ft | 437 kts | 82° |
| 2026-04-24 09:23 | 40.70921 | 28.15827 | 27022 ft | 437 kts | 82° |
| 2026-04-24 09:23 | 40.71244 | 28.19810 | 27023 ft | 438 kts | 82° |
| 2026-04-24 09:24 | 40.71567 | 28.23768 | 27020 ft | 438 kts | 82° |
| 2026-04-24 09:24 | 40.71894 | 28.27767 | 27020 ft | 438 kts | 82° |
| 2026-04-24 09:24 | 40.72217 | 28.31717 | 27023 ft | 438 kts | 82° |
| 2026-04-24 09:24 | 40.72542 | 28.35710 | 27021 ft | 439 kts | 82° |
| 2026-04-24 09:25 | 40.72868 | 28.39715 | 27018 ft | 438 kts | 82° |
| 2026-04-24 09:25 | 40.73188 | 28.43685 | 27022 ft | 439 kts | 82° |
| 2026-04-24 09:25 | 40.73508 | 28.47683 | 27023 ft | 439 kts | 82° |
| 2026-04-24 09:25 | 40.73806 | 28.51673 | 27020 ft | 435 kts | 83° |
| 2026-04-24 09:26 | 40.73947 | 28.55538 | 27016 ft | 417 kts | 86° |
| 2026-04-24 09:26 | 40.73928 | 28.59346 | 27019 ft | 414 kts | 89° |
| 2026-04-24 09:26 | 40.73826 | 28.63161 | 27023 ft | 414 kts | 90° |
| 2026-04-24 09:26 | 40.73722 | 28.66722 | 27021 ft | 414 kts | 90° |
| 2026-04-24 09:27 | 40.73609 | 28.70475 | 27019 ft | 414 kts | 90° |
| 2026-04-24 09:27 | 40.73497 | 28.74233 | 27021 ft | 414 kts | 90° |
| 2026-04-24 09:27 | 40.73381 | 28.78083 | 27023 ft | 414 kts | 90° |
| 2026-04-24 09:27 | 40.73271 | 28.81741 | 27021 ft | 414 kts | 90° |
| 2026-04-24 09:28 | 40.73155 | 28.85540 | 27023 ft | 414 kts | 90° |
| 2026-04-24 09:28 | 40.73037 | 28.89339 | 27022 ft | 414 kts | 90° |
| 2026-04-24 09:28 | 40.72919 | 28.93124 | 27018 ft | 414 kts | 90° |
| 2026-04-24 09:28 | 40.72801 | 28.96890 | 26907 ft | 410 kts | 90° |
| 2026-04-24 09:29 | 40.72577 | 29.00596 | 26345 ft | 409 kts | 95° |
| 2026-04-24 09:29 | 40.72088 | 29.04287 | 25608 ft | 410 kts | 101° |
| 2026-04-24 09:29 | 40.71369 | 29.07896 | 24759 ft | 406 kts | 104° |
| 2026-04-24 09:29 | 40.70583 | 29.11458 | 23822 ft | 403 kts | 104° |
| 2026-04-24 09:30 | 40.69804 | 29.14937 | 22952 ft | 398 kts | 104° |
| 2026-04-24 09:30 | 40.69073 | 29.18381 | 22088 ft | 392 kts | 100° |
| 2026-04-24 09:30 | 40.68682 | 29.21912 | 21210 ft | 385 kts | 91° |
| 2026-04-24 09:30 | 40.68708 | 29.25340 | 20729 ft | 372 kts | 83° |
| 2026-04-24 09:31 | 40.68941 | 29.28768 | 20542 ft | 374 kts | 82° |
| 2026-04-24 09:31 | 40.69198 | 29.32171 | 20084 ft | 374 kts | 82° |
| 2026-04-24 09:31 | 40.69450 | 29.35556 | 19608 ft | 373 kts | 82° |
| 2026-04-24 09:31 | 40.69696 | 29.38931 | 19132 ft | 370 kts | 82° |
| 2026-04-24 09:32 | 40.69935 | 29.42295 | 18673 ft | 364 kts | 82° |
| 2026-04-24 09:32 | 40.70160 | 29.45514 | 18486 ft | 342 kts | 82° |
| 2026-04-24 09:32 | 40.70368 | 29.48516 | 18357 ft | 321 kts | 81° |
| 2026-04-24 09:32 | 40.70570 | 29.51404 | 18219 ft | 310 kts | 81° |
| 2026-04-24 09:33 | 40.70770 | 29.54219 | 17945 ft | 307 kts | 81° |
| 2026-04-24 09:33 | 40.70967 | 29.57000 | 17554 ft | 304 kts | 81° |
| 2026-04-24 09:33 | 40.71162 | 29.59785 | 17171 ft | 303 kts | 82° |
| 2026-04-24 09:33 | 40.71349 | 29.62503 | 16817 ft | 302 kts | 82° |
| 2026-04-24 09:34 | 40.71536 | 29.65249 | 16451 ft | 301 kts | 82° |
| 2026-04-24 09:34 | 40.71721 | 29.67984 | 16088 ft | 300 kts | 83° |
| 2026-04-24 09:34 | 40.71906 | 29.70724 | 15727 ft | 299 kts | 83° |
| 2026-04-24 09:34 | 40.72090 | 29.73464 | 15366 ft | 299 kts | 83° |
| 2026-04-24 09:35 | 40.72271 | 29.76165 | 15009 ft | 298 kts | 83° |
| 2026-04-24 09:35 | 40.72456 | 29.78927 | 14928 ft | 307 kts | 83° |
| 2026-04-24 09:35 | 40.72642 | 29.81754 | 14934 ft | 311 kts | 83° |
| 2026-04-24 09:35 | 40.72831 | 29.84620 | 14565 ft | 310 kts | 84° |
| 2026-04-24 09:36 | 40.73015 | 29.87410 | 14166 ft | 302 kts | 84° |
| 2026-04-24 09:36 | 40.73192 | 29.90118 | 13785 ft | 293 kts | 84° |
| 2026-04-24 09:36 | 40.73365 | 29.92756 | 13440 ft | 288 kts | 84° |
| 2026-04-24 09:36 | 40.73535 | 29.95342 | 13093 ft | 284 kts | 84° |
| 2026-04-24 09:37 | 40.73708 | 29.97936 | 12745 ft | 281 kts | 82° |
| 2026-04-24 09:37 | 40.74115 | 30.00241 | 12422 ft | 279 kts | 67° |
| 2026-04-24 09:37 | 40.75028 | 30.02492 | 12079 ft | 277 kts | 53° |
| 2026-04-24 09:37 | 40.76182 | 30.04503 | 11747 ft | 276 kts | 50° |
| 2026-04-24 09:38 | 40.77370 | 30.06477 | 11414 ft | 276 kts | 50° |
| 2026-04-24 09:38 | 40.78560 | 30.08467 | 11080 ft | 276 kts | 50° |
| 2026-04-24 09:38 | 40.79747 | 30.10476 | 10740 ft | 276 kts | 51° |
| 2026-04-24 09:38 | 40.80914 | 30.12465 | 10406 ft | 275 kts | 51° |
| 2026-04-24 09:39 | 40.82080 | 30.14459 | 10139 ft | 272 kts | 51° |
| 2026-04-24 09:39 | 40.83235 | 30.16404 | 10045 ft | 267 kts | 46° |
| 2026-04-24 09:39 | 40.84722 | 30.17769 | 9983 ft | 261 kts | 17° |
| 2026-04-24 09:39 | 40.86502 | 30.18136 | 9988 ft | 259 kts | 2° |
| 2026-04-24 09:40 | 40.88291 | 30.18270 | 9982 ft | 259 kts | 2° |
| 2026-04-24 09:40 | 40.90096 | 30.18412 | 9993 ft | 260 kts | 2° |
| 2026-04-24 09:40 | 40.91900 | 30.18570 | 9994 ft | 259 kts | 2° |
| 2026-04-24 09:40 | 40.93709 | 30.18738 | 9989 ft | 259 kts | 3° |
| 2026-04-24 09:41 | 40.95495 | 30.18907 | 9986 ft | 259 kts | 3° |
| 2026-04-24 09:41 | 40.97312 | 30.19081 | 9989 ft | 259 kts | 3° |
| 2026-04-24 09:41 | 40.99117 | 30.19255 | 9984 ft | 259 kts | 3° |
| 2026-04-24 09:41 | 41.00910 | 30.19429 | 9989 ft | 259 kts | 3° |
| 2026-04-24 09:42 | 41.02689 | 30.19388 | 9864 ft | 255 kts | 343° |
| 2026-04-24 09:42 | 41.04144 | 30.18187 | 9676 ft | 245 kts | 309° |
| 2026-04-24 09:42 | 41.04921 | 30.16208 | 9549 ft | 245 kts | 284° |
| 2026-04-24 09:42 | 41.05042 | 30.13962 | 9426 ft | 246 kts | 268° |
| 2026-04-24 09:43 | 41.04949 | 30.11704 | 9315 ft | 246 kts | 268° |
| 2026-04-24 09:43 | 41.04862 | 30.09453 | 9187 ft | 245 kts | 268° |
| 2026-04-24 09:43 | 41.04790 | 30.07177 | 9044 ft | 245 kts | 269° |
| 2026-04-24 09:43 | 41.04729 | 30.04940 | 8913 ft | 244 kts | 269° |
| 2026-04-24 09:44 | 41.04676 | 30.02683 | 8784 ft | 244 kts | 269° |
| 2026-04-24 09:44 | 41.04626 | 30.00436 | 8631 ft | 243 kts | 269° |
| 2026-04-24 09:44 | 41.04579 | 29.98209 | 8457 ft | 243 kts | 269° |
| 2026-04-24 09:44 | 41.04533 | 29.95975 | 8215 ft | 242 kts | 269° |
| 2026-04-24 09:45 | 41.04488 | 29.93767 | 7949 ft | 241 kts | 269° |
| 2026-04-24 09:45 | 41.04443 | 29.91551 | 7672 ft | 240 kts | 269° |
| 2026-04-24 09:45 | 41.04397 | 29.89338 | 7393 ft | 239 kts | 269° |
| 2026-04-24 09:45 | 41.04350 | 29.87141 | 7114 ft | 238 kts | 269° |
| 2026-04-24 09:46 | 41.04304 | 29.84968 | 6830 ft | 237 kts | 269° |
| 2026-04-24 09:46 | 41.04258 | 29.82780 | 6552 ft | 236 kts | 269° |
| 2026-04-24 09:46 | 41.04211 | 29.80609 | 6269 ft | 235 kts | 269° |
| 2026-04-24 09:46 | 41.04164 | 29.78446 | 5983 ft | 234 kts | 269° |
| 2026-04-24 09:47 | 41.04118 | 29.76310 | 5712 ft | 232 kts | 269° |
| 2026-04-24 09:47 | 41.04070 | 29.74191 | 5464 ft | 231 kts | 269° |
| 2026-04-24 09:47 | 41.04023 | 29.72066 | 5197 ft | 230 kts | 269° |
| 2026-04-24 09:47 | 41.03895 | 29.69980 | 4998 ft | 228 kts | 258° |
| 2026-04-24 09:48 | 41.03318 | 29.68004 | 4989 ft | 231 kts | 243° |
| 2026-04-24 09:48 | 41.02516 | 29.66192 | 4984 ft | 228 kts | 240° |
| 2026-04-24 09:48 | 41.01714 | 29.64463 | 4970 ft | 213 kts | 239° |
| 2026-04-24 09:48 | 41.00951 | 29.62820 | 4976 ft | 205 kts | 240° |
| 2026-04-24 09:49 | 41.00219 | 29.61229 | 4886 ft | 202 kts | 240° |
| 2026-04-24 09:49 | 40.99497 | 29.59644 | 4570 ft | 203 kts | 240° |
| 2026-04-24 09:49 | 40.98767 | 29.58033 | 4284 ft | 203 kts | 240° |
| 2026-04-24 09:49 | 40.98071 | 29.56430 | 4017 ft | 201 kts | 244° |
| 2026-04-24 09:50 | 40.97456 | 29.54771 | 3759 ft | 199 kts | 246° |
| 2026-04-24 09:50 | 40.96886 | 29.53135 | 3644 ft | 188 kts | 246° |
| 2026-04-24 09:50 | 40.96342 | 29.51593 | 3614 ft | 184 kts | 246° |
| 2026-04-24 09:50 | 40.95795 | 29.50080 | 3393 ft | 184 kts | 246° |
| 2026-04-24 09:51 | 40.95242 | 29.48572 | 3114 ft | 178 kts | 245° |
| 2026-04-24 09:51 | 40.94719 | 29.47162 | 2859 ft | 162 kts | 245° |
| 2026-04-24 09:51 | 40.94241 | 29.45877 | 2585 ft | 149 kts | 244° |
| 2026-04-24 09:51 | 40.93809 | 29.44708 | 2342 ft | 136 kts | 245° |
| 2026-04-24 09:52 | 40.93407 | 29.43614 | 2132 ft | 130 kts | 245° |
| 2026-04-24 09:52 | 40.93014 | 29.42544 | 1954 ft | 130 kts | 245° |
| 2026-04-24 09:52 | 40.92619 | 29.41474 | 1763 ft | 129 kts | 246° |
| 2026-04-24 09:52 | 40.92229 | 29.40416 | 1573 ft | 129 kts | 245° |
| 2026-04-24 09:53 | 40.91842 | 29.39364 | 1361 ft | 128 kts | 244° |
| 2026-04-24 09:53 | 40.91450 | 29.38309 | 1141 ft | 128 kts | 245° |
| 2026-04-24 09:53 | 40.91059 | 29.37270 | 958 ft | 127 kts | 245° |
| 2026-04-24 09:53 | 40.90667 | 29.36207 | 767 ft | 127 kts | 244° |
| 2026-04-24 09:54 | 40.90287 | 29.35177 | 576 ft | 126 kts | 244° |
| 2026-04-24 09:54 | 40.89905 | 29.34131 | 384 ft | 127 kts | 242° |
| 2026-04-24 09:54 | 40.89535 | 29.33113 | 321 ft | 115 kts | 243° |
| 2026-04-24 09:54 | 40.89262 | 29.32381 | 321 ft | 48 kts | 246° |
| 2026-04-24 09:55 | 40.89146 | 29.32003 | 321 ft | 38 kts | 249° |
| 2026-04-24 09:55 | 40.89126 | 29.31705 | 321 ft | 23 kts | 274° |
| 2026-04-24 09:55 | 40.89128 | 29.31662 | 321 ft | 3 kts | 272° |
| 2026-04-24 09:55 | 40.89130 | 29.31627 | 321 ft | 5 kts | 281° |
| 2026-04-24 09:56 | 40.89193 | 29.31630 | 321 ft | 18 kts | 54° |
| 2026-04-24 09:56 | 40.89263 | 29.31809 | 321 ft | 22 kts | 63° |
| 2026-04-24 09:56 | 40.89331 | 29.31992 | 321 ft | 22 kts | 64° |
| 2026-04-24 09:56 | 40.89396 | 29.32172 | 321 ft | 21 kts | 64° |
| 2026-04-24 09:57 | 40.89462 | 29.32349 | 321 ft | 18 kts | 56° |
| 2026-04-24 09:57 | 40.89507 | 29.32369 | 321 ft | 0 kts | 336° |
| 2026-04-24 10:03 | 40.89507 | 29.32368 | 321 ft | 0 kts | 326° |
| 2026-04-24 10:03 | 40.89495 | 29.32351 | 321 ft | 9 kts | 203° |
| 2026-04-24 10:03 | 40.89425 | 29.32254 | 321 ft | 18 kts | 249° |
| 2026-04-24 10:04 | 40.89372 | 29.32103 | 321 ft | 18 kts | 243° |
| 2026-04-24 10:04 | 40.89316 | 29.31953 | 321 ft | 18 kts | 249° |
| 2026-04-24 10:04 | 40.89264 | 29.31801 | 321 ft | 18 kts | 244° |
| 2026-04-24 10:04 | 40.89202 | 29.31659 | 321 ft | 17 kts | 242° |
| 2026-04-24 10:05 | 40.89153 | 29.31533 | 321 ft | 10 kts | 247° |
| 2026-04-24 10:05 | 40.89138 | 29.31473 | 321 ft | 0 kts | 264° |
| 2026-04-24 10:05 | 40.89138 | 29.31464 | 321 ft | 0 kts | 279° |
| 2026-04-24 10:05 | 40.89154 | 29.31439 | 321 ft | 5 kts | 315° |
| 2026-04-24 10:06 | 40.89207 | 29.31422 | 321 ft | 19 kts | 15° |
| 2026-04-24 10:06 | 40.89364 | 29.31808 | 321 ft | 23 kts | 65° |
| 2026-04-24 10:06 | 40.89396 | 29.31885 | 321 ft | 2 kts | 60° |
| 2026-04-24 10:07 | 40.89408 | 29.31908 | 321 ft | 3 kts | 46° |
| 2026-04-24 10:07 | 40.89411 | 29.31884 | 321 ft | 10 kts | 243° |
| 2026-04-24 10:07 | 40.89343 | 29.31731 | 321 ft | 24 kts | 243° |
| 2026-04-24 10:07 | 40.89265 | 29.31538 | 321 ft | 23 kts | 246° |
| 2026-04-24 10:08 | 40.89274 | 29.31440 | 321 ft | 12 kts | 328° |
| 2026-04-24 10:08 | 40.89389 | 29.31364 | 321 ft | 24 kts | 332° |
| 2026-04-24 10:08 | 40.89565 | 29.31253 | 321 ft | 32 kts | 336° |
| 2026-04-24 10:08 | 40.89725 | 29.31164 | 321 ft | 8 kts | 344° |
| 2026-04-24 10:09 | 40.89758 | 29.31143 | 321 ft | 4 kts | 333° |
| 2026-04-24 10:09 | 40.89776 | 29.31131 | 321 ft | 0 kts | 333° |
| 2026-04-24 10:10 | 40.89782 | 29.31127 | 321 ft | 3 kts | 333° |
| 2026-04-24 10:11 | 40.89824 | 29.31102 | 321 ft | 10 kts | 336° |
| 2026-04-24 10:11 | 40.89917 | 29.31055 | 321 ft | 17 kts | 341° |
| 2026-04-24 10:11 | 40.90044 | 29.30986 | 321 ft | 21 kts | 332° |
| 2026-04-24 10:11 | 40.90174 | 29.30900 | 321 ft | 21 kts | 333° |
| 2026-04-24 10:12 | 40.90284 | 29.30936 | 321 ft | 12 kts | 341° |
| 2026-04-24 10:12 | 40.90328 | 29.30910 | 321 ft | 2 kts | 333° |
| 2026-04-24 10:12 | 40.90338 | 29.30903 | 321 ft | 0 kts | 333° |